Etusivu
METAR-TAF:

METAR-TAF

Lentoasemat :

Sanikiluaqin lentoasema

Sanikiluaq, Nunavut, Kanada

Leveyspiiri: 56-32N, Pituuspiiri: 079-15W, korkeus merenpinnasta: 32 m

Tämänhetkinen sää

Tämä raportti tehtiin 4 tuntia ja 38 minuuttia sitten, kello 18.00 UTC
Tuuli 22 kn lännestä
Lämpötila -27°C
Kosteus 75%
Ilmanpaine 1005 hPa
Näkyvyys: 1.6 km
Muutamia pilviä 500 ft:n korkeudessa
jääkiteitä, matalaa lumituiskua

METAR: CYSK 161800Z 26022KT 1SM IC DRSN FEW005 M27/M30 A2967 RMK SF1 SN CVR/TRACE LOOSE LAS SLP052

Aika: 17:38 (22:38 UTC)


TAF: puuttuu

Säähavainnot ja -ennusteet yli 4000 lentoasemalta (METAR- ja TAF-raportit).

Käytössä olevat sääasemat on merkitty karttaan keltaisilla ja punaisilla pisteillä.

Aseta hiiri pisteen päälle nähdäksesi sääaseman nimen.

Klikkaa sitten nähdäksesi säähavainnot ja -ennusteet.

Kartan vaihtaminen: klikkaa mustalla rastilla varustettuja vihreitä pisteitä, niin voit zoomata sisään; viivalla varustettua vihreää pistettä, niin voit zoomata ulos tai vihreitä nuolia, niin pääset viereisille kartoille.


METAR-TAF: